createdAt,value
2022-10-09T00:00:31.336Z,1017.13
2022-10-09T00:01:02.932Z,1017.44
2022-10-09T00:01:34.880Z,1017.24
2022-10-09T00:02:06.842Z,1017.24
2022-10-09T00:02:36.941Z,1017.13
2022-10-09T00:02:55.001Z,1017.13
2022-10-09T00:03:27.518Z,1017.13
2022-10-09T00:03:58.799Z,1017.34
2022-10-09T00:04:30.854Z,1017.34
2022-10-09T00:05:03.161Z,1017.13
2022-10-09T00:05:34.332Z,1017.34
2022-10-09T00:05:51.666Z,1017.34
2022-10-09T00:06:22.825Z,1017.34
2022-10-09T00:06:40.018Z,1017.13
2022-10-09T00:07:27.995Z,1017.13
2022-10-09T00:07:58.814Z,1017.54
2022-10-09T00:08:30.928Z,1017.54
2022-10-09T00:09:03.038Z,1017.34
2022-10-09T00:09:34.387Z,1017.13
2022-10-09T00:09:51.525Z,1017.13
2022-10-09T00:10:22.970Z,1017.13
2022-10-09T00:10:40.092Z,1017.13
2022-10-09T00:11:34.939Z,1017.34
2022-10-09T00:11:58.869Z,1017.34
2022-10-09T00:12:30.927Z,1017.34
2022-10-09T00:13:02.948Z,1017.24
2022-10-09T00:13:34.310Z,1017.24
2022-10-09T00:13:51.540Z,1017.24
2022-10-09T00:14:22.837Z,1017.24
2022-10-09T00:14:39.984Z,1017.24
2022-10-09T00:15:11.747Z,1017.24
2022-10-09T00:15:34.886Z,1017.24
2022-10-09T00:15:58.922Z,1017.24
2022-10-09T00:16:31.000Z,1017.24
2022-10-09T00:17:03.012Z,1017.24
2022-10-09T00:17:34.369Z,1017.24
2022-10-09T00:17:50.740Z,1017.24
2022-10-09T00:18:23.713Z,1017.24
2022-10-09T00:18:40.909Z,1017.24
2022-10-09T00:19:11.067Z,1017.24
2022-10-09T00:19:34.175Z,1017.03
2022-10-09T00:19:58.794Z,1017.03
2022-10-09T00:20:31.043Z,1017.03
2022-10-09T00:21:02.917Z,1017.24
2022-10-09T00:21:34.391Z,1017.24
2022-10-09T00:21:50.753Z,1017.24
2022-10-09T00:22:23.750Z,1017.24
2022-10-09T00:22:40.836Z,1017.03
2022-10-09T00:23:11.123Z,1017.03
2022-10-09T00:23:34.290Z,1017.24
2022-10-09T00:23:59.545Z,1017.24
2022-10-09T00:24:30.763Z,1017.24
2022-10-09T00:25:03.834Z,1017.03
2022-10-09T00:25:34.259Z,1017.13
2022-10-09T00:25:50.836Z,1017.13
2022-10-09T00:26:23.654Z,1017.13
2022-10-09T00:26:40.745Z,1017.03
2022-10-09T00:27:11.115Z,1017.03
2022-10-09T00:27:34.527Z,1016.83
2022-10-09T00:27:58.796Z,1016.83
2022-10-09T00:28:35.324Z,1016.83
2022-10-09T00:29:03.011Z,1017.13
2022-10-09T00:29:35.085Z,1017.03
2022-10-09T00:30:07.034Z,1017.03
2022-10-09T00:30:34.443Z,1017.13
2022-10-09T00:30:55.176Z,1017.13
2022-10-09T00:31:27.046Z,1017.13
2022-10-09T00:31:59.489Z,1017.24
2022-10-09T00:32:30.853Z,1017.24
2022-10-09T00:33:02.911Z,1017.03
2022-10-09T00:33:34.241Z,1016.93
2022-10-09T00:33:50.966Z,1016.93
2022-10-09T00:34:23.500Z,1016.93
2022-10-09T00:34:40.776Z,1017.13
2022-10-09T00:35:11.119Z,1017.13
2022-10-09T00:35:34.488Z,1017.24
2022-10-09T00:35:59.583Z,1017.24
2022-10-09T00:36:31.122Z,1017.24
2022-10-09T00:37:02.847Z,1017.13
2022-10-09T00:37:35.965Z,1017.24
2022-10-09T00:38:23.475Z,1017.24
2022-10-09T00:38:40.597Z,1017.24
2022-10-09T00:39:10.908Z,1017.24
2022-10-09T00:39:34.385Z,1017.13
2022-10-09T00:39:59.024Z,1017.13
2022-10-09T00:40:30.969Z,1017.13
2022-10-09T00:41:02.793Z,1017.24
2022-10-09T00:41:34.191Z,1017.13
2022-10-09T00:41:50.959Z,1017.13
2022-10-09T00:42:23.478Z,1017.13
2022-10-09T00:42:40.587Z,1017.03
2022-10-09T00:43:10.889Z,1017.03
2022-10-09T00:43:34.243Z,1017.13
2022-10-09T00:43:59.649Z,1017.13
2022-10-09T00:44:30.958Z,1017.13
2022-10-09T00:45:03.213Z,1017.24
2022-10-09T00:45:34.434Z,1017.03
2022-10-09T00:45:51.101Z,1017.03
2022-10-09T00:46:23.520Z,1017.03
2022-10-09T00:46:40.667Z,1017.13
2022-10-09T00:47:10.883Z,1017.13
2022-10-09T00:47:34.192Z,1017.03
2022-10-09T00:47:59.970Z,1017.03
2022-10-09T00:48:31.130Z,1017.03
2022-10-09T00:49:02.811Z,1017.13
2022-10-09T00:49:34.662Z,1017.03
2022-10-09T00:50:07.091Z,1017.03
2022-10-09T00:50:34.671Z,1016.93
2022-10-09T00:50:55.091Z,1016.93
2022-10-09T00:51:27.597Z,1016.93
2022-10-09T00:51:58.842Z,1017.24
2022-10-09T00:52:31.057Z,1017.24
2022-10-09T00:53:02.750Z,1017.03
2022-10-09T00:53:34.549Z,1017.03
2022-10-09T00:53:51.263Z,1017.03
2022-10-09T00:54:22.920Z,1017.03
2022-10-09T00:54:39.918Z,1016.93
2022-10-09T00:55:11.178Z,1016.93
2022-10-09T00:55:34.411Z,1017.03
2022-10-09T00:55:59.733Z,1017.03
2022-10-09T00:56:30.787Z,1017.03
2022-10-09T00:57:02.818Z,1017.24
2022-10-09T00:57:34.215Z,1017.13
2022-10-09T00:57:50.948Z,1017.13
2022-10-09T00:58:24.559Z,1017.13
2022-10-09T00:58:41.780Z,1017.13
2022-10-09T00:59:11.021Z,1017.13
2022-10-09T00:59:34.424Z,1017.13
2022-10-09T00:59:59.021Z,1017.13
2022-10-09T01:00:31.185Z,1017.13
2022-10-09T01:01:02.878Z,1017.03
2022-10-09T01:01:34.261Z,1017.13
2022-10-09T01:01:51.098Z,1017.13
2022-10-09T01:02:23.532Z,1017.13
2022-10-09T01:02:40.743Z,1016.93
2022-10-09T01:03:10.962Z,1016.93
2022-10-09T01:03:34.321Z,1017.13
2022-10-09T01:03:59.391Z,1017.13
2022-10-09T01:04:30.792Z,1017.13
2022-10-09T01:05:02.925Z,1016.83
2022-10-09T01:05:34.202Z,1017.24
2022-10-09T01:05:51.016Z,1017.24
2022-10-09T01:06:23.497Z,1017.24
2022-10-09T01:06:40.723Z,1016.93
2022-10-09T01:07:10.986Z,1016.93
2022-10-09T01:07:34.326Z,1017.03
2022-10-09T01:07:59.003Z,1017.03
2022-10-09T01:08:31.618Z,1017.03
2022-10-09T01:09:03.114Z,1017.03
2022-10-09T01:09:34.196Z,1017.13
2022-10-09T01:10:35.196Z,1017.13
2022-10-09T01:11:41.374Z,1017.13
2022-10-09T01:12:47.749Z,1017.13
2022-10-09T01:13:54.088Z,1017.13
2022-10-09T01:15:00.438Z,1017.13
2022-10-09T01:16:06.603Z,1017.13
2022-10-09T01:17:12.753Z,1017.13
2022-10-09T01:18:18.886Z,1017.13
2022-10-09T01:19:25.031Z,1017.13
2022-10-09T01:20:31.301Z,1017.13
2022-10-09T01:21:37.482Z,1017.13
2022-10-09T01:22:43.609Z,1017.13
2022-10-09T01:23:11.635Z,1017.03
2022-10-09T01:23:34.241Z,1016.93
2022-10-09T01:23:58.989Z,1016.93
2022-10-09T01:24:31.546Z,1016.93
2022-10-09T01:25:02.890Z,1017.34
2022-10-09T01:25:35.578Z,1017.03
2022-10-09T01:26:07.042Z,1017.03
2022-10-09T01:26:34.310Z,1017.03
2022-10-09T01:26:55.012Z,1017.03
2022-10-09T01:27:26.843Z,1017.03
2022-10-09T01:27:59.865Z,1017.13
2022-10-09T01:28:31.417Z,1017.13
2022-10-09T01:29:03.158Z,1017.03
2022-10-09T01:29:34.413Z,1016.93
2022-10-09T01:29:50.791Z,1016.93
2022-10-09T01:30:23.974Z,1016.93
2022-10-09T01:30:40.949Z,1016.83
2022-10-09T01:31:11.170Z,1016.83
2022-10-09T01:31:34.372Z,1017.13
2022-10-09T01:31:59.699Z,1017.13
2022-10-09T01:32:31.104Z,1017.13
2022-10-09T01:33:03.410Z,1016.93
2022-10-09T01:33:34.443Z,1017.13
2022-10-09T01:33:50.726Z,1017.13
2022-10-09T01:34:39.368Z,1016.93
2022-10-09T01:35:12.553Z,1016.93
2022-10-09T01:35:34.194Z,1017.03
2022-10-09T01:35:58.997Z,1017.03
2022-10-09T01:36:31.622Z,1017.03
2022-10-09T01:37:02.917Z,1016.93
2022-10-09T01:37:34.350Z,1016.73
2022-10-09T01:37:51.552Z,1016.73
2022-10-09T01:38:22.932Z,1016.73
2022-10-09T01:38:40.272Z,1016.83
2022-10-09T01:39:11.611Z,1016.83
2022-10-09T01:39:34.427Z,1016.83
2022-10-09T01:40:14.942Z,1016.83
2022-10-09T01:40:34.203Z,1016.93
2022-10-09T01:41:03.000Z,1016.93
2022-10-09T01:41:36.215Z,1016.83
2022-10-09T01:42:07.570Z,1016.83
2022-10-09T01:42:34.668Z,1016.73
2022-10-09T01:42:54.933Z,1016.73
2022-10-09T01:43:26.967Z,1016.73
2022-10-09T01:44:00.585Z,1016.73
2022-10-09T01:44:30.796Z,1016.73
2022-10-09T01:45:03.235Z,1016.83
2022-10-09T01:45:35.281Z,1016.73
2022-10-09T01:46:06.935Z,1016.73
2022-10-09T01:46:34.440Z,1016.83
2022-10-09T01:46:54.888Z,1016.83
2022-10-09T01:47:27.439Z,1016.83
2022-10-09T01:47:59.144Z,1016.93
2022-10-09T01:48:31.671Z,1016.93
2022-10-09T01:49:02.972Z,1017.13
2022-10-09T01:49:35.032Z,1016.73
2022-10-09T01:50:06.959Z,1016.73
2022-10-09T01:50:34.378Z,1016.83
2022-10-09T01:50:55.871Z,1016.83
2022-10-09T01:51:27.023Z,1016.83
2022-10-09T01:51:59.591Z,1016.93
2022-10-09T01:52:30.872Z,1016.93
2022-10-09T01:53:03.664Z,1016.73
2022-10-09T01:53:34.194Z,1016.93
2022-10-09T01:53:50.984Z,1016.93
2022-10-09T01:54:23.579Z,1016.93
2022-10-09T01:54:40.727Z,1016.83
2022-10-09T01:55:10.966Z,1016.83
2022-10-09T01:55:34.409Z,1016.83
2022-10-09T01:55:59.180Z,1016.83
2022-10-09T01:56:31.631Z,1016.83
2022-10-09T01:57:03.846Z,1016.83
2022-10-09T01:57:35.259Z,1016.83
2022-10-09T01:58:07.087Z,1016.83
2022-10-09T01:58:34.283Z,1016.63
2022-10-09T01:58:54.827Z,1016.63
2022-10-09T01:59:26.921Z,1016.63
2022-10-09T01:59:59.496Z,1016.73
2022-10-09T02:00:31.293Z,1016.73
2022-10-09T02:01:03.628Z,1016.63
2022-10-09T02:01:34.312Z,1016.73
2022-10-09T02:01:51.014Z,1016.73
2022-10-09T02:02:23.542Z,1016.73
2022-10-09T02:02:41.664Z,1016.83
2022-10-09T02:03:10.855Z,1016.83
2022-10-09T02:03:34.659Z,1016.52
2022-10-09T02:03:59.057Z,1016.52
2022-10-09T02:04:31.567Z,1016.52
2022-10-09T02:05:02.934Z,1016.52
2022-10-09T02:05:35.006Z,1016.73
2022-10-09T02:06:07.079Z,1016.73
2022-10-09T02:06:34.207Z,1016.63
2022-10-09T02:06:55.606Z,1016.63
2022-10-09T02:07:26.789Z,1016.63
2022-10-09T02:07:59.726Z,1016.83
2022-10-09T02:08:30.999Z,1016.83
2022-10-09T02:09:03.677Z,1016.63
2022-10-09T02:09:34.936Z,1016.83
2022-10-09T02:10:07.949Z,1016.83
2022-10-09T02:10:34.670Z,1016.83
2022-10-09T02:10:55.176Z,1016.83
2022-10-09T02:11:27.575Z,1016.83
2022-10-09T02:11:58.874Z,1016.73
2022-10-09T02:12:31.748Z,1016.73
2022-10-09T02:13:02.956Z,1016.63
2022-10-09T02:13:35.600Z,1016.83
2022-10-09T02:14:07.536Z,1016.83
2022-10-09T02:14:34.349Z,1016.73
2022-10-09T02:14:55.489Z,1016.73
2022-10-09T02:15:26.999Z,1016.73
2022-10-09T02:15:59.679Z,1016.73
2022-10-09T02:16:36.147Z,1016.73
2022-10-09T02:17:02.921Z,1016.63
2022-10-09T02:17:34.304Z,1016.63
2022-10-09T02:17:50.735Z,1016.63
2022-10-09T02:18:23.647Z,1016.63
2022-10-09T02:18:41.117Z,1016.83
2022-10-09T02:19:11.479Z,1016.83
2022-10-09T02:19:34.364Z,1016.73
2022-10-09T02:19:58.894Z,1016.73
2022-10-09T02:20:31.798Z,1016.73
2022-10-09T02:21:03.021Z,1016.93
2022-10-09T02:21:35.106Z,1016.52
2022-10-09T02:22:07.378Z,1016.52
2022-10-09T02:22:34.409Z,1016.73
2022-10-09T02:22:54.825Z,1016.73
2022-10-09T02:23:26.957Z,1016.73
2022-10-09T02:23:59.554Z,1016.73
2022-10-09T02:24:30.919Z,1016.73
2022-10-09T02:25:03.779Z,1016.93
2022-10-09T02:25:34.166Z,1016.63
2022-10-09T02:25:51.066Z,1016.63
2022-10-09T02:26:22.816Z,1016.63
2022-10-09T02:26:40.004Z,1016.52
2022-10-09T02:27:11.715Z,1016.52
2022-10-09T02:27:34.386Z,1016.63
2022-10-09T02:27:59.101Z,1016.63
2022-10-09T02:28:31.742Z,1016.63
2022-10-09T02:29:03.001Z,1016.63
2022-10-09T02:29:34.202Z,1016.63
2022-10-09T02:29:51.389Z,1016.63
2022-10-09T02:30:23.077Z,1016.63
2022-10-09T02:30:39.934Z,1016.63
2022-10-09T02:31:10.947Z,1016.63
2022-10-09T02:31:34.264Z,1016.63
2022-10-09T02:31:59.657Z,1016.63
2022-10-09T02:32:30.775Z,1016.63
2022-10-09T02:33:03.564Z,1016.63
2022-10-09T02:33:34.255Z,1016.63
2022-10-09T02:33:50.744Z,1016.63
2022-10-09T02:34:22.846Z,1016.63
2022-10-09T02:34:39.953Z,1016.63
2022-10-09T02:35:11.957Z,1016.63
2022-10-09T02:35:34.410Z,1016.73
2022-10-09T02:35:59.155Z,1016.73
2022-10-09T02:36:31.212Z,1016.73
2022-10-09T02:37:02.973Z,1016.52
2022-10-09T02:37:34.185Z,1016.52
2022-10-09T02:37:50.884Z,1016.52
2022-10-09T02:38:23.540Z,1016.52
2022-10-09T02:38:40.714Z,1016.52
2022-10-09T02:39:10.913Z,1016.52
2022-10-09T02:39:34.334Z,1016.73
2022-10-09T02:39:59.648Z,1016.73
2022-10-09T02:40:30.929Z,1016.73
2022-10-09T02:41:03.590Z,1016.63
2022-10-09T02:41:34.319Z,1016.63
2022-10-09T02:41:50.905Z,1016.63
2022-10-09T02:42:23.043Z,1016.63
2022-10-09T02:42:40.103Z,1016.63
2022-10-09T02:43:11.616Z,1016.63
2022-10-09T02:43:34.202Z,1016.73
2022-10-09T02:43:59.769Z,1016.73
2022-10-09T02:44:31.101Z,1016.73
2022-10-09T02:45:03.141Z,1016.52
2022-10-09T02:45:34.753Z,1016.63
2022-10-09T02:46:06.951Z,1016.63
2022-10-09T02:46:38.033Z,1016.63
2022-10-09T02:46:54.903Z,1016.63
2022-10-09T02:47:27.525Z,1016.63
2022-10-09T02:47:58.808Z,1016.52
2022-10-09T02:48:31.702Z,1016.52
2022-10-09T02:49:03.249Z,1016.63
2022-10-09T02:49:34.581Z,1016.63
2022-10-09T02:50:06.945Z,1016.63
2022-10-09T02:50:36.764Z,1016.73
2022-10-09T02:50:56.012Z,1016.73
2022-10-09T02:51:27.017Z,1016.73
2022-10-09T02:51:59.725Z,1016.93
2022-10-09T02:52:30.813Z,1016.93
2022-10-09T02:53:04.717Z,1016.42
2022-10-09T02:53:34.515Z,1016.42
2022-10-09T02:54:07.629Z,1016.42
2022-10-09T02:54:34.654Z,1016.52
2022-10-09T02:54:54.846Z,1016.52
2022-10-09T02:55:27.127Z,1016.52
2022-10-09T02:55:58.996Z,1016.32
2022-10-09T02:56:31.651Z,1016.32
2022-10-09T02:57:02.811Z,1016.42
2022-10-09T02:57:34.333Z,1016.52
2022-10-09T02:57:50.895Z,1016.52
2022-10-09T02:58:23.505Z,1016.52
2022-10-09T02:58:40.818Z,1016.52
2022-10-09T02:59:11.088Z,1016.52
2022-10-09T02:59:34.797Z,1016.42
2022-10-09T02:59:59.531Z,1016.42
2022-10-09T03:00:31.513Z,1016.42
2022-10-09T03:01:02.827Z,1016.32
2022-10-09T03:01:34.752Z,1016.63
2022-10-09T03:02:07.071Z,1016.63
2022-10-09T03:02:35.060Z,1016.42
2022-10-09T03:02:54.873Z,1016.42
2022-10-09T03:03:27.706Z,1016.42
2022-10-09T03:04:00.736Z,1016.52
2022-10-09T03:04:31.490Z,1016.52
2022-10-09T03:05:02.914Z,1016.22
2022-10-09T03:05:35.094Z,1016.22
2022-10-09T03:06:06.950Z,1016.22
2022-10-09T03:06:34.213Z,1016.32
2022-10-09T03:06:55.256Z,1016.32
2022-10-09T03:07:26.882Z,1016.32
2022-10-09T03:07:59.791Z,1016.42
2022-10-09T03:08:31.020Z,1016.42
2022-10-09T03:09:03.622Z,1016.42
2022-10-09T03:09:34.508Z,1016.32
2022-10-09T03:09:50.900Z,1016.32
2022-10-09T03:10:23.815Z,1016.32
2022-10-09T03:10:40.833Z,1016.42
2022-10-09T03:11:11.086Z,1016.42
2022-10-09T03:11:34.208Z,1016.32
2022-10-09T03:11:58.863Z,1016.32
2022-10-09T03:12:31.649Z,1016.32
2022-10-09T03:13:02.968Z,1016.32
2022-10-09T03:13:34.304Z,1016.42
2022-10-09T03:13:51.903Z,1016.42
2022-10-09T03:14:22.849Z,1016.42
2022-10-09T03:14:40.023Z,1016.52
2022-10-09T03:15:11.531Z,1016.52
2022-10-09T03:15:34.203Z,1016.42
2022-10-09T03:15:59.824Z,1016.42
2022-10-09T03:16:30.935Z,1016.42
2022-10-09T03:17:03.648Z,1016.52
2022-10-09T03:17:34.276Z,1016.32
2022-10-09T03:17:50.767Z,1016.32
2022-10-09T03:18:22.838Z,1016.32
2022-10-09T03:18:39.968Z,1016.63
2022-10-09T03:19:11.681Z,1016.63
2022-10-09T03:19:34.350Z,1016.73
2022-10-09T03:19:58.969Z,1016.73
2022-10-09T03:20:30.913Z,1016.73
2022-10-09T03:21:03.860Z,1016.42
2022-10-09T03:21:34.780Z,1016.63
2022-10-09T03:22:07.050Z,1016.63
2022-10-09T03:22:34.312Z,1016.42
2022-10-09T03:22:54.851Z,1016.42
2022-10-09T03:23:27.722Z,1016.42
2022-10-09T03:23:59.228Z,1016.32
2022-10-09T03:24:32.412Z,1016.32
2022-10-09T03:25:02.955Z,1016.32
2022-10-09T03:25:34.977Z,1016.63
2022-10-09T03:26:07.025Z,1016.63
2022-10-09T03:26:34.216Z,1016.52
2022-10-09T03:26:55.121Z,1016.52
2022-10-09T03:27:26.834Z,1016.52
2022-10-09T03:28:00.717Z,1016.42
2022-10-09T03:28:31.040Z,1016.42
2022-10-09T03:29:03.151Z,1016.63
2022-10-09T03:29:34.415Z,1016.42
2022-10-09T03:29:50.788Z,1016.42
2022-10-09T03:30:23.754Z,1016.42
2022-10-09T03:30:40.739Z,1016.42
2022-10-09T03:31:18.982Z,1016.42
2022-10-09T03:31:51.730Z,1016.42
2022-10-09T03:32:14.855Z,1016.42
2022-10-09T03:32:34.249Z,1016.52
2022-10-09T03:33:03.556Z,1016.52
2022-10-09T03:33:34.394Z,1016.32
2022-10-09T03:33:50.860Z,1016.32
2022-10-09T03:34:23.825Z,1016.32
2022-10-09T03:34:40.866Z,1016.32
2022-10-09T03:35:11.121Z,1016.32
2022-10-09T03:35:34.247Z,1016.42
2022-10-09T03:35:58.928Z,1016.42
2022-10-09T03:36:31.695Z,1016.42
2022-10-09T03:37:02.953Z,1016.32
2022-10-09T03:37:35.292Z,1016.32
2022-10-09T03:38:06.816Z,1016.32
2022-10-09T03:38:34.417Z,1016.32
2022-10-09T03:38:55.866Z,1016.32
2022-10-09T03:39:27.020Z,1016.32
2022-10-09T03:39:59.647Z,1016.12
2022-10-09T03:40:30.898Z,1016.12
2022-10-09T03:41:02.989Z,1016.22
2022-10-09T03:41:34.202Z,1016.32
2022-10-09T03:41:50.604Z,1016.32
2022-10-09T03:42:23.624Z,1016.32
2022-10-09T03:42:40.887Z,1016.12
2022-10-09T03:43:11.009Z,1016.12
2022-10-09T03:43:34.402Z,1016.22
2022-10-09T03:43:58.993Z,1016.22
2022-10-09T03:44:31.731Z,1016.22
2022-10-09T03:45:02.928Z,1016.42
2022-10-09T03:45:34.733Z,1016.32
2022-10-09T03:46:07.136Z,1016.32
2022-10-09T03:46:34.327Z,1016.32
2022-10-09T03:46:55.816Z,1016.32
2022-10-09T03:47:26.925Z,1016.32
2022-10-09T03:47:59.881Z,1016.22
2022-10-09T03:48:30.951Z,1016.22
2022-10-09T03:49:02.977Z,1016.32
2022-10-09T03:49:34.242Z,1016.22
2022-10-09T03:49:50.954Z,1016.22
2022-10-09T03:50:24.432Z,1016.22
2022-10-09T03:50:41.461Z,1016.42
2022-10-09T03:51:13.032Z,1016.42
2022-10-09T03:51:35.361Z,1016.22
2022-10-09T03:51:58.983Z,1016.22
2022-10-09T03:52:30.991Z,1016.22
2022-10-09T03:53:02.844Z,1016.12
2022-10-09T03:53:34.633Z,1016.22
2022-10-09T03:54:06.927Z,1016.22
2022-10-09T03:54:34.561Z,1016.42
2022-10-09T03:54:56.188Z,1016.42
2022-10-09T03:55:26.981Z,1016.42
2022-10-09T03:55:59.720Z,1016.32
2022-10-09T03:56:31.003Z,1016.32
2022-10-09T03:57:03.595Z,1016.32
2022-10-09T03:57:34.453Z,1016.12
2022-10-09T03:57:50.890Z,1016.12
2022-10-09T03:58:23.036Z,1016.12
2022-10-09T03:58:40.127Z,1015.92
2022-10-09T03:59:11.649Z,1015.92
2022-10-09T03:59:34.185Z,1016.22
2022-10-09T03:59:58.903Z,1016.22
2022-10-09T04:00:31.286Z,1016.22
2022-10-09T04:01:03.033Z,1016.02
2022-10-09T04:01:35.116Z,1016.02
2022-10-09T04:02:06.916Z,1016.02
2022-10-09T04:02:34.468Z,1016.22
2022-10-09T04:02:55.132Z,1016.22
2022-10-09T04:03:27.693Z,1016.22
2022-10-09T04:03:59.247Z,1016.12
2022-10-09T04:04:30.864Z,1016.12
2022-10-09T04:05:03.209Z,1016.32
2022-10-09T04:05:34.234Z,1016.12
2022-10-09T04:05:51.705Z,1016.12
2022-10-09T04:06:23.251Z,1016.12
2022-10-09T04:06:40.255Z,1016.32
2022-10-09T04:07:11.040Z,1016.32
2022-10-09T04:07:34.351Z,1016.32
2022-10-09T04:07:59.521Z,1016.32
2022-10-09T04:08:30.835Z,1016.32
2022-10-09T04:09:03.298Z,1016.12
2022-10-09T04:09:34.216Z,1016.22
2022-10-09T04:09:50.832Z,1016.22
2022-10-09T04:10:23.797Z,1016.22
2022-10-09T04:10:40.783Z,1016.42
2022-10-09T04:11:10.871Z,1016.42
2022-10-09T04:11:34.508Z,1016.22
2022-10-09T04:11:58.882Z,1016.22
2022-10-09T04:12:31.687Z,1016.22
2022-10-09T04:13:02.978Z,1016.22
2022-10-09T04:13:35.155Z,1016.22
2022-10-09T04:14:06.885Z,1016.22
2022-10-09T04:14:34.373Z,1016.12
2022-10-09T04:14:55.019Z,1016.12
2022-10-09T04:15:27.557Z,1016.12
2022-10-09T04:15:59.577Z,1016.12
2022-10-09T04:16:30.980Z,1016.12
2022-10-09T04:17:03.547Z,1016.12
2022-10-09T04:17:34.585Z,1016.22
2022-10-09T04:18:06.842Z,1016.22
2022-10-09T04:18:36.176Z,1016.12
2022-10-09T04:18:55.028Z,1016.12
2022-10-09T04:19:28.240Z,1016.12
2022-10-09T04:19:58.980Z,1016.22
2022-10-09T04:20:32.722Z,1016.22
2022-10-09T04:21:02.947Z,1016.12
2022-10-09T04:21:35.151Z,1016.12
2022-10-09T04:22:07.003Z,1016.12
2022-10-09T04:22:34.234Z,1016.22
2022-10-09T04:22:54.827Z,1016.22
2022-10-09T04:23:26.935Z,1016.22
2022-10-09T04:23:59.550Z,1016.22
2022-10-09T04:24:30.922Z,1016.22
2022-10-09T04:25:03.834Z,1016.12
2022-10-09T04:25:34.596Z,1016.12
2022-10-09T04:25:51.132Z,1016.12
2022-10-09T04:26:23.040Z,1016.12
2022-10-09T04:26:40.181Z,1015.92
2022-10-09T04:27:11.669Z,1015.92
2022-10-09T04:27:34.250Z,1016.32
2022-10-09T04:27:58.958Z,1016.32
2022-10-09T04:28:31.093Z,1016.32
2022-10-09T04:29:03.029Z,1016.12
2022-10-09T04:29:34.459Z,1016.22
2022-10-09T04:29:50.788Z,1016.22
2022-10-09T04:30:24.037Z,1016.22
2022-10-09T04:30:40.911Z,1015.92
2022-10-09T04:31:11.153Z,1015.92
2022-10-09T04:31:34.248Z,1016.12
2022-10-09T04:31:58.988Z,1016.12
2022-10-09T04:32:31.704Z,1016.12
2022-10-09T04:33:02.964Z,1016.12
2022-10-09T04:33:35.151Z,1016.02
2022-10-09T04:34:06.931Z,1016.02
2022-10-09T04:34:34.366Z,1016.02
2022-10-09T04:34:56.140Z,1016.02
2022-10-09T04:35:27.266Z,1016.02
2022-10-09T04:35:58.813Z,1016.02
2022-10-09T04:36:30.876Z,1016.02
2022-10-09T04:37:02.914Z,1016.12
2022-10-09T04:37:34.204Z,1016.02
2022-10-09T04:37:50.716Z,1016.02
2022-10-09T04:38:23.952Z,1016.02
2022-10-09T04:38:40.874Z,1016.12
2022-10-09T04:39:11.017Z,1016.12
2022-10-09T04:39:34.677Z,1016.22
2022-10-09T04:39:59.006Z,1016.22
2022-10-09T04:40:31.801Z,1016.22
2022-10-09T04:41:02.910Z,1015.92
2022-10-09T04:41:38.366Z,1016.02
2022-10-09T04:42:06.912Z,1016.02
2022-10-09T04:42:34.356Z,1016.12
2022-10-09T04:42:54.857Z,1016.12
2022-10-09T04:43:26.965Z,1016.12
2022-10-09T04:43:59.544Z,1015.92
2022-10-09T04:44:30.853Z,1015.92
2022-10-09T04:45:03.044Z,1015.51
2022-10-09T04:45:34.253Z,1016.02
2022-10-09T04:45:51.064Z,1016.02
2022-10-09T04:46:23.531Z,1016.02
2022-10-09T04:46:40.692Z,1015.81
2022-10-09T04:47:11.515Z,1015.81
2022-10-09T04:47:34.317Z,1016.02
2022-10-09T04:48:00.655Z,1016.02
2022-10-09T04:48:31.020Z,1016.02
2022-10-09T04:49:03.709Z,1015.81
2022-10-09T04:49:34.227Z,1015.81
2022-10-09T04:49:50.917Z,1015.81
2022-10-09T04:50:23.192Z,1015.81
2022-10-09T04:50:40.179Z,1015.92
2022-10-09T04:51:11.664Z,1015.92
2022-10-09T04:51:34.218Z,1015.81
2022-10-09T04:51:58.911Z,1015.81
2022-10-09T04:52:31.589Z,1015.81
2022-10-09T04:53:02.827Z,1015.81
2022-10-09T04:53:34.389Z,1015.92
2022-10-09T04:53:51.543Z,1015.92
2022-10-09T04:54:23.023Z,1015.92
2022-10-09T04:54:40.087Z,1015.81
2022-10-09T04:55:11.238Z,1015.81
2022-10-09T04:55:34.958Z,1015.71
2022-10-09T04:55:59.912Z,1015.71
2022-10-09T04:56:31.038Z,1015.71
2022-10-09T04:57:02.998Z,1015.81
2022-10-09T04:57:34.610Z,1015.81
2022-10-09T04:58:06.854Z,1015.81
2022-10-09T04:58:34.377Z,1015.92
2022-10-09T04:58:55.079Z,1015.92
2022-10-09T04:59:27.590Z,1015.92
2022-10-09T04:59:58.878Z,1015.81
2022-10-09T05:00:31.108Z,1015.81
2022-10-09T05:01:02.997Z,1015.71
2022-10-09T05:01:37.816Z,1015.92
2022-10-09T05:01:51.570Z,1015.92
2022-10-09T05:02:22.924Z,1015.92
2022-10-09T05:02:40.022Z,1015.81
2022-10-09T05:03:12.093Z,1015.81
2022-10-09T05:03:34.341Z,1015.81
2022-10-09T05:03:58.922Z,1015.81
2022-10-09T05:04:30.882Z,1015.81
2022-10-09T05:05:03.070Z,1015.81
2022-10-09T05:05:34.221Z,1015.81
2022-10-09T05:05:51.038Z,1015.81
2022-10-09T05:06:23.627Z,1015.81
2022-10-09T05:06:40.712Z,1015.71
2022-10-09T05:07:10.954Z,1015.71
2022-10-09T05:07:34.331Z,1015.81
2022-10-09T05:07:59.064Z,1015.81
2022-10-09T05:08:31.696Z,1015.81
2022-10-09T05:09:02.984Z,1015.81
2022-10-09T05:09:35.214Z,1015.71
2022-10-09T05:10:07.164Z,1015.71
2022-10-09T05:10:34.829Z,1015.81
2022-10-09T05:10:55.161Z,1015.81
2022-10-09T05:11:26.840Z,1015.81
2022-10-09T05:11:59.705Z,1015.81
2022-10-09T05:12:31.021Z,1015.81
2022-10-09T05:13:02.923Z,1015.92
2022-10-09T05:13:34.433Z,1016.02
2022-10-09T05:13:50.691Z,1016.02
2022-10-09T05:14:23.837Z,1016.02
2022-10-09T05:14:40.963Z,1015.81
2022-10-09T05:15:11.304Z,1015.81
2022-10-09T05:15:34.283Z,1015.81
2022-10-09T05:15:59.051Z,1015.81
2022-10-09T05:16:31.956Z,1015.81
2022-10-09T05:17:13.697Z,1015.81
2022-10-09T05:17:35.408Z,1015.71
2022-10-09T05:18:06.910Z,1015.71
2022-10-09T05:18:34.359Z,1015.92
2022-10-09T05:18:55.304Z,1015.92
2022-10-09T05:19:27.076Z,1015.92
2022-10-09T05:19:59.549Z,1015.71
2022-10-09T05:20:31.049Z,1015.71
2022-10-09T05:21:03.850Z,1015.71
2022-10-09T05:21:34.893Z,1015.71
2022-10-09T05:22:07.964Z,1015.71
2022-10-09T05:22:34.270Z,1015.61
2022-10-09T05:22:54.936Z,1015.61
2022-10-09T05:23:27.195Z,1015.61
2022-10-09T05:23:59.076Z,1015.81
2022-10-09T05:24:30.985Z,1015.81
2022-10-09T05:25:04.007Z,1015.92
2022-10-09T05:25:34.226Z,1015.92
2022-10-09T05:25:51.064Z,1015.92
2022-10-09T05:26:23.597Z,1015.92
2022-10-09T05:26:40.703Z,1015.81
2022-10-09T05:27:10.935Z,1015.81
2022-10-09T05:27:34.375Z,1015.71
2022-10-09T05:27:59.100Z,1015.71
2022-10-09T05:28:31.707Z,1015.71
2022-10-09T05:29:03.139Z,1015.81
2022-10-09T05:29:35.141Z,1015.71
2022-10-09T05:30:07.252Z,1015.71
2022-10-09T05:30:34.239Z,1015.92
2022-10-09T05:30:55.834Z,1015.92
2022-10-09T05:31:27.029Z,1015.92
2022-10-09T05:31:59.678Z,1016.02
2022-10-09T05:32:30.886Z,1016.02
2022-10-09T05:33:03.904Z,1015.81
2022-10-09T05:33:34.624Z,1015.71
2022-10-09T05:33:50.978Z,1015.71
2022-10-09T05:34:22.907Z,1015.71
2022-10-09T05:34:40.072Z,1015.61
2022-10-09T05:35:12.048Z,1015.61
2022-10-09T05:35:34.383Z,1015.71
2022-10-09T05:35:59.246Z,1015.71
2022-10-09T05:36:30.879Z,1015.71
2022-10-09T05:37:02.879Z,1015.81
2022-10-09T05:37:34.219Z,1015.81
2022-10-09T05:37:50.930Z,1015.81
2022-10-09T05:38:23.599Z,1015.81
2022-10-09T05:38:40.757Z,1015.61
2022-10-09T05:39:10.997Z,1015.61
2022-10-09T05:39:34.719Z,1015.71
2022-10-09T05:39:59.063Z,1015.71
2022-10-09T05:40:31.909Z,1015.71
2022-10-09T05:41:02.883Z,1015.61
2022-10-09T05:41:35.126Z,1015.81
2022-10-09T05:42:07.089Z,1015.81
2022-10-09T05:42:34.297Z,1015.92
2022-10-09T05:42:56.838Z,1015.92
2022-10-09T05:43:27.051Z,1015.92
2022-10-09T05:43:59.596Z,1015.61
2022-10-09T05:44:31.014Z,1015.61
2022-10-09T05:45:04.045Z,1015.61
2022-10-09T05:45:34.315Z,1015.92
2022-10-09T05:45:51.357Z,1015.92
2022-10-09T05:46:23.148Z,1015.92
2022-10-09T05:46:40.096Z,1015.71
2022-10-09T05:47:11.879Z,1015.71
2022-10-09T05:47:34.407Z,1015.81